sensor_id;sensor_type;location;lat;lon;timestamp;P1;durP1;ratioP1;P2;durP2;ratioP2
72590;SDS011;60625;51.212;5.952;2023-04-15T00:01:03;10.50;;;3.20;;
72590;SDS011;60625;51.212;5.952;2023-04-15T00:06:05;10.00;;;3.20;;
72590;SDS011;60625;51.212;5.952;2023-04-15T00:11:06;8.10;;;3.00;;
72590;SDS011;60625;51.212;5.952;2023-04-15T00:16:07;10.40;;;3.50;;
72590;SDS011;60625;51.212;5.952;2023-04-15T00:21:08;5.70;;;3.10;;
72590;SDS011;60625;51.212;5.952;2023-04-15T00:26:09;8.10;;;2.80;;
72590;SDS011;60625;51.212;5.952;2023-04-15T00:31:09;7.90;;;3.10;;
72590;SDS011;60625;51.212;5.952;2023-04-15T00:36:10;10.20;;;3.50;;
72590;SDS011;60625;51.212;5.952;2023-04-15T00:41:11;7.20;;;3.40;;
72590;SDS011;60625;51.212;5.952;2023-04-15T00:46:14;7.80;;;3.30;;
72590;SDS011;60625;51.212;5.952;2023-04-15T00:51:16;8.70;;;3.00;;
72590;SDS011;60625;51.212;5.952;2023-04-15T00:56:19;10.00;;;3.30;;
72590;SDS011;60625;51.212;5.952;2023-04-15T01:01:21;8.60;;;3.20;;
72590;SDS011;60625;51.212;5.952;2023-04-15T01:06:22;13.40;;;4.30;;
72590;SDS011;60625;51.212;5.952;2023-04-15T01:11:23;8.80;;;3.90;;
72590;SDS011;60625;51.212;5.952;2023-04-15T01:16:24;7.50;;;3.10;;
72590;SDS011;60625;51.212;5.952;2023-04-15T01:21:26;9.10;;;3.30;;
72590;SDS011;60625;51.212;5.952;2023-04-15T01:26:27;7.60;;;3.50;;
72590;SDS011;60625;51.212;5.952;2023-04-15T01:31:28;10.30;;;3.70;;
72590;SDS011;60625;51.212;5.952;2023-04-15T01:36:29;11.20;;;4.30;;
72590;SDS011;60625;51.212;5.952;2023-04-15T01:41:29;10.00;;;4.00;;
72590;SDS011;60625;51.212;5.952;2023-04-15T01:46:30;10.20;;;4.00;;
72590;SDS011;60625;51.212;5.952;2023-04-15T01:51:30;11.20;;;4.70;;
72590;SDS011;60625;51.212;5.952;2023-04-15T01:56:31;10.70;;;4.40;;
72590;SDS011;60625;51.212;5.952;2023-04-15T02:01:32;10.80;;;5.20;;
72590;SDS011;60625;51.212;5.952;2023-04-15T02:06:33;9.20;;;4.10;;
72590;SDS011;60625;51.212;5.952;2023-04-15T02:11:33;10.10;;;4.40;;
72590;SDS011;60625;51.212;5.952;2023-04-15T02:16:37;10.00;;;4.80;;
72590;SDS011;60625;51.212;5.952;2023-04-15T02:21:38;10.40;;;4.50;;
72590;SDS011;60625;51.212;5.952;2023-04-15T02:26:39;8.90;;;4.40;;
72590;SDS011;60625;51.212;5.952;2023-04-15T02:31:39;8.40;;;4.30;;
72590;SDS011;60625;51.212;5.952;2023-04-15T02:36:41;9.50;;;3.90;;
72590;SDS011;60625;51.212;5.952;2023-04-15T02:41:41;10.40;;;4.40;;
72590;SDS011;60625;51.212;5.952;2023-04-15T02:46:43;11.70;;;5.10;;
72590;SDS011;60625;51.212;5.952;2023-04-15T02:51:46;11.70;;;5.10;;
72590;SDS011;60625;51.212;5.952;2023-04-15T02:56:51;15.30;;;5.10;;
72590;SDS011;60625;51.212;5.952;2023-04-15T03:01:54;10.60;;;4.80;;
72590;SDS011;60625;51.212;5.952;2023-04-15T03:07:00;8.70;;;4.90;;
72590;SDS011;60625;51.212;5.952;2023-04-15T03:12:01;9.00;;;4.90;;
72590;SDS011;60625;51.212;5.952;2023-04-15T03:17:03;11.50;;;5.10;;
72590;SDS011;60625;51.212;5.952;2023-04-15T03:22:03;8.30;;;4.60;;
72590;SDS011;60625;51.212;5.952;2023-04-15T03:27:04;9.70;;;4.20;;
72590;SDS011;60625;51.212;5.952;2023-04-15T03:32:08;10.10;;;5.10;;
72590;SDS011;60625;51.212;5.952;2023-04-15T03:37:08;12.40;;;5.10;;
72590;SDS011;60625;51.212;5.952;2023-04-15T03:42:09;11.80;;;4.70;;
72590;SDS011;60625;51.212;5.952;2023-04-15T03:47:10;12.30;;;4.80;;
72590;SDS011;60625;51.212;5.952;2023-04-15T03:52:10;13.20;;;5.40;;
72590;SDS011;60625;51.212;5.952;2023-04-15T03:57:11;10.80;;;5.40;;
72590;SDS011;60625;51.212;5.952;2023-04-15T04:02:11;9.80;;;6.00;;
72590;SDS011;60625;51.212;5.952;2023-04-15T04:07:15;11.50;;;6.10;;
72590;SDS011;60625;51.212;5.952;2023-04-15T04:12:16;13.10;;;6.00;;
72590;SDS011;60625;51.212;5.952;2023-04-15T04:17:16;13.50;;;5.90;;
72590;SDS011;60625;51.212;5.952;2023-04-15T04:22:21;18.30;;;6.60;;
72590;SDS011;60625;51.212;5.952;2023-04-15T04:27:23;13.80;;;6.70;;
72590;SDS011;60625;51.212;5.952;2023-04-15T04:32:24;14.60;;;6.50;;
72590;SDS011;60625;51.212;5.952;2023-04-15T04:37:25;12.20;;;6.40;;
72590;SDS011;60625;51.212;5.952;2023-04-15T04:42:26;14.00;;;7.00;;
72590;SDS011;60625;51.212;5.952;2023-04-15T04:47:26;15.10;;;7.10;;
72590;SDS011;60625;51.212;5.952;2023-04-15T04:52:27;17.00;;;7.70;;
72590;SDS011;60625;51.212;5.952;2023-04-15T04:57:27;16.60;;;7.80;;
72590;SDS011;60625;51.212;5.952;2023-04-15T05:02:28;16.90;;;8.70;;
72590;SDS011;60625;51.212;5.952;2023-04-15T05:07:28;14.60;;;8.20;;
72590;SDS011;60625;51.212;5.952;2023-04-15T05:12:29;16.40;;;8.10;;
72590;SDS011;60625;51.212;5.952;2023-04-15T05:17:29;19.20;;;10.10;;
72590;SDS011;60625;51.212;5.952;2023-04-15T05:22:32;21.30;;;11.40;;
72590;SDS011;60625;51.212;5.952;2023-04-15T05:27:33;19.60;;;10.00;;
72590;SDS011;60625;51.212;5.952;2023-04-15T05:32:33;20.80;;;11.00;;
72590;SDS011;60625;51.212;5.952;2023-04-15T05:37:34;22.80;;;10.80;;
72590;SDS011;60625;51.212;5.952;2023-04-15T05:42:34;17.40;;;10.40;;
72590;SDS011;60625;51.212;5.952;2023-04-15T05:47:35;21.30;;;11.80;;
72590;SDS011;60625;51.212;5.952;2023-04-15T05:52:36;18.40;;;10.70;;
72590;SDS011;60625;51.212;5.952;2023-04-15T05:57:37;23.40;;;12.50;;
72590;SDS011;60625;51.212;5.952;2023-04-15T06:02:38;21.50;;;12.50;;
72590;SDS011;60625;51.212;5.952;2023-04-15T06:07:38;19.30;;;12.10;;
72590;SDS011;60625;51.212;5.952;2023-04-15T06:12:39;24.40;;;11.60;;
72590;SDS011;60625;51.212;5.952;2023-04-15T06:17:39;21.00;;;11.70;;
72590;SDS011;60625;51.212;5.952;2023-04-15T06:22:40;17.70;;;10.90;;
72590;SDS011;60625;51.212;5.952;2023-04-15T06:27:41;18.70;;;11.50;;
72590;SDS011;60625;51.212;5.952;2023-04-15T06:32:41;21.30;;;12.00;;
72590;SDS011;60625;51.212;5.952;2023-04-15T06:37:42;25.20;;;12.90;;
72590;SDS011;60625;51.212;5.952;2023-04-15T06:42:42;23.00;;;13.20;;
72590;SDS011;60625;51.212;5.952;2023-04-15T06:47:42;25.80;;;13.20;;
72590;SDS011;60625;51.212;5.952;2023-04-15T06:52:43;22.00;;;13.70;;
72590;SDS011;60625;51.212;5.952;2023-04-15T06:57:44;21.20;;;13.70;;
72590;SDS011;60625;51.212;5.952;2023-04-15T07:02:44;24.70;;;12.80;;
72590;SDS011;60625;51.212;5.952;2023-04-15T07:07:45;22.50;;;12.40;;
72590;SDS011;60625;51.212;5.952;2023-04-15T07:12:47;21.30;;;12.70;;
72590;SDS011;60625;51.212;5.952;2023-04-15T07:17:48;21.40;;;12.50;;
72590;SDS011;60625;51.212;5.952;2023-04-15T07:22:49;19.80;;;12.50;;
72590;SDS011;60625;51.212;5.952;2023-04-15T07:27:49;20.40;;;12.10;;
72590;SDS011;60625;51.212;5.952;2023-04-15T07:32:50;18.60;;;10.50;;
72590;SDS011;60625;51.212;5.952;2023-04-15T07:37:50;20.50;;;10.30;;
72590;SDS011;60625;51.212;5.952;2023-04-15T07:42:51;20.80;;;10.40;;
72590;SDS011;60625;51.212;5.952;2023-04-15T07:47:51;18.30;;;9.80;;
72590;SDS011;60625;51.212;5.952;2023-04-15T07:52:52;16.30;;;9.00;;
72590;SDS011;60625;51.212;5.952;2023-04-15T07:57:53;17.30;;;9.30;;
72590;SDS011;60625;51.212;5.952;2023-04-15T08:02:55;14.70;;;8.60;;
72590;SDS011;60625;51.212;5.952;2023-04-15T08:07:56;16.50;;;9.50;;
72590;SDS011;60625;51.212;5.952;2023-04-15T08:12:57;16.50;;;9.60;;
72590;SDS011;60625;51.212;5.952;2023-04-15T08:17:58;13.90;;;8.30;;
72590;SDS011;60625;51.212;5.952;2023-04-15T08:23:00;15.80;;;8.90;;
72590;SDS011;60625;51.212;5.952;2023-04-15T08:28:03;14.40;;;7.90;;
72590;SDS011;60625;51.212;5.952;2023-04-15T08:33:06;16.10;;;7.80;;
72590;SDS011;60625;51.212;5.952;2023-04-15T08:38:07;14.20;;;7.30;;
72590;SDS011;60625;51.212;5.952;2023-04-15T08:43:27;10.50;;;7.10;;
72590;SDS011;60625;51.212;5.952;2023-04-15T08:48:31;10.90;;;6.70;;
72590;SDS011;60625;51.212;5.952;2023-04-15T08:53:34;9.20;;;5.60;;
72590;SDS011;60625;51.212;5.952;2023-04-15T08:58:35;8.50;;;5.40;;
72590;SDS011;60625;51.212;5.952;2023-04-15T09:03:36;10.10;;;5.50;;
72590;SDS011;60625;51.212;5.952;2023-04-15T09:08:37;13.50;;;5.90;;
72590;SDS011;60625;51.212;5.952;2023-04-15T09:13:38;10.70;;;5.30;;
72590;SDS011;60625;51.212;5.952;2023-04-15T09:18:42;9.90;;;5.10;;
72590;SDS011;60625;51.212;5.952;2023-04-15T09:23:57;9.70;;;4.60;;
72590;SDS011;60625;51.212;5.952;2023-04-15T09:29:07;8.70;;;5.20;;
72590;SDS011;60625;51.212;5.952;2023-04-15T09:34:14;7.60;;;4.30;;
72590;SDS011;60625;51.212;5.952;2023-04-15T09:39:14;5.90;;;2.90;;
72590;SDS011;60625;51.212;5.952;2023-04-15T09:44:25;8.60;;;4.10;;
72590;SDS011;60625;51.212;5.952;2023-04-15T09:49:26;5.80;;;2.60;;
72590;SDS011;60625;51.212;5.952;2023-04-15T09:54:34;5.00;;;2.40;;
72590;SDS011;60625;51.212;5.952;2023-04-15T09:59:36;5.00;;;2.50;;
72590;SDS011;60625;51.212;5.952;2023-04-15T10:04:39;4.70;;;2.20;;
72590;SDS011;60625;51.212;5.952;2023-04-15T10:09:42;5.00;;;2.40;;
72590;SDS011;60625;51.212;5.952;2023-04-15T10:14:52;4.80;;;2.40;;
72590;SDS011;60625;51.212;5.952;2023-04-15T10:20:00;5.00;;;2.30;;
72590;SDS011;60625;51.212;5.952;2023-04-15T10:25:02;5.40;;;2.80;;
72590;SDS011;60625;51.212;5.952;2023-04-15T10:30:04;4.80;;;2.30;;
72590;SDS011;60625;51.212;5.952;2023-04-15T10:35:06;5.80;;;3.10;;
72590;SDS011;60625;51.212;5.952;2023-04-15T10:40:31;5.60;;;2.80;;
72590;SDS011;60625;51.212;5.952;2023-04-15T10:45:35;5.80;;;2.70;;
72590;SDS011;60625;51.212;5.952;2023-04-15T10:50:36;5.60;;;2.60;;
72590;SDS011;60625;51.212;5.952;2023-04-15T10:55:38;5.80;;;2.90;;
72590;SDS011;60625;51.212;5.952;2023-04-15T11:00:39;7.00;;;3.10;;
72590;SDS011;60625;51.212;5.952;2023-04-15T11:05:52;7.80;;;3.40;;
72590;SDS011;60625;51.212;5.952;2023-04-15T11:10:53;5.90;;;2.60;;
72590;SDS011;60625;51.212;5.952;2023-04-15T11:15:55;6.30;;;2.80;;
72590;SDS011;60625;51.212;5.952;2023-04-15T11:21:02;5.20;;;2.00;;
72590;SDS011;60625;51.212;5.952;2023-04-15T11:26:06;4.40;;;1.80;;
72590;SDS011;60625;51.212;5.952;2023-04-15T11:31:16;4.20;;;1.90;;
72590;SDS011;60625;51.212;5.952;2023-04-15T11:36:17;4.60;;;2.20;;
72590;SDS011;60625;51.212;5.952;2023-04-15T11:41:22;5.70;;;2.80;;
72590;SDS011;60625;51.212;5.952;2023-04-15T11:46:28;6.70;;;3.60;;
72590;SDS011;60625;51.212;5.952;2023-04-15T11:51:32;5.00;;;2.60;;
72590;SDS011;60625;51.212;5.952;2023-04-15T11:56:49;6.90;;;3.10;;
72590;SDS011;60625;51.212;5.952;2023-04-15T12:01:51;5.20;;;2.60;;
72590;SDS011;60625;51.212;5.952;2023-04-15T12:06:51;5.30;;;3.00;;
72590;SDS011;60625;51.212;5.952;2023-04-15T12:11:56;8.30;;;2.80;;
72590;SDS011;60625;51.212;5.952;2023-04-15T12:17:02;5.00;;;2.20;;
72590;SDS011;60625;51.212;5.952;2023-04-15T12:22:08;9.10;;;2.80;;
72590;SDS011;60625;51.212;5.952;2023-04-15T12:27:13;5.30;;;2.50;;
72590;SDS011;60625;51.212;5.952;2023-04-15T12:32:16;5.10;;;2.70;;
72590;SDS011;60625;51.212;5.952;2023-04-15T12:37:20;4.80;;;1.90;;
72590;SDS011;60625;51.212;5.952;2023-04-15T12:42:20;4.70;;;2.40;;
72590;SDS011;60625;51.212;5.952;2023-04-15T12:47:21;5.60;;;2.60;;
72590;SDS011;60625;51.212;5.952;2023-04-15T12:52:22;6.60;;;2.20;;
72590;SDS011;60625;51.212;5.952;2023-04-15T12:57:24;6.10;;;2.50;;
72590;SDS011;60625;51.212;5.952;2023-04-15T13:02:25;5.50;;;2.30;;
72590;SDS011;60625;51.212;5.952;2023-04-15T13:07:27;4.80;;;1.90;;
72590;SDS011;60625;51.212;5.952;2023-04-15T13:12:28;5.00;;;1.70;;
72590;SDS011;60625;51.212;5.952;2023-04-15T13:17:30;4.40;;;1.80;;
72590;SDS011;60625;51.212;5.952;2023-04-15T13:22:30;7.00;;;1.80;;
72590;SDS011;60625;51.212;5.952;2023-04-15T13:27:31;5.40;;;2.00;;
72590;SDS011;60625;51.212;5.952;2023-04-15T13:32:31;3.50;;;1.30;;
72590;SDS011;60625;51.212;5.952;2023-04-15T13:37:32;4.30;;;2.10;;
72590;SDS011;60625;51.212;5.952;2023-04-15T13:42:32;6.20;;;1.90;;
72590;SDS011;60625;51.212;5.952;2023-04-15T13:47:33;5.10;;;2.00;;
72590;SDS011;60625;51.212;5.952;2023-04-15T13:52:34;4.70;;;1.60;;
72590;SDS011;60625;51.212;5.952;2023-04-15T13:57:34;5.70;;;2.00;;
72590;SDS011;60625;51.212;5.952;2023-04-15T14:02:35;5.60;;;2.20;;
72590;SDS011;60625;51.212;5.952;2023-04-15T14:07:36;4.90;;;1.70;;
72590;SDS011;60625;51.212;5.952;2023-04-15T14:12:36;4.40;;;1.70;;
72590;SDS011;60625;51.212;5.952;2023-04-15T14:17:37;4.60;;;1.80;;
72590;SDS011;60625;51.212;5.952;2023-04-15T14:22:38;5.30;;;1.80;;
72590;SDS011;60625;51.212;5.952;2023-04-15T14:27:39;4.40;;;1.50;;
72590;SDS011;60625;51.212;5.952;2023-04-15T14:32:39;3.90;;;1.60;;
72590;SDS011;60625;51.212;5.952;2023-04-15T14:37:40;4.20;;;1.30;;
72590;SDS011;60625;51.212;5.952;2023-04-15T14:42:41;3.70;;;1.40;;
72590;SDS011;60625;51.212;5.952;2023-04-15T14:47:41;3.50;;;1.10;;
72590;SDS011;60625;51.212;5.952;2023-04-15T14:52:41;4.90;;;1.30;;
72590;SDS011;60625;51.212;5.952;2023-04-15T14:57:42;4.20;;;1.30;;
72590;SDS011;60625;51.212;5.952;2023-04-15T15:02:43;4.10;;;1.60;;
72590;SDS011;60625;51.212;5.952;2023-04-15T15:07:43;4.30;;;1.60;;
72590;SDS011;60625;51.212;5.952;2023-04-15T15:12:44;4.40;;;1.40;;
72590;SDS011;60625;51.212;5.952;2023-04-15T15:17:44;3.90;;;1.30;;
72590;SDS011;60625;51.212;5.952;2023-04-15T15:22:45;4.00;;;1.50;;
72590;SDS011;60625;51.212;5.952;2023-04-15T15:27:45;3.20;;;1.20;;
72590;SDS011;60625;51.212;5.952;2023-04-15T15:32:46;3.40;;;0.90;;
72590;SDS011;60625;51.212;5.952;2023-04-15T15:37:47;5.10;;;1.20;;
72590;SDS011;60625;51.212;5.952;2023-04-15T15:42:47;4.50;;;1.30;;
72590;SDS011;60625;51.212;5.952;2023-04-15T15:47:50;4.10;;;1.60;;
72590;SDS011;60625;51.212;5.952;2023-04-15T15:52:51;8.00;;;1.20;;
72590;SDS011;60625;51.212;5.952;2023-04-15T15:57:52;3.60;;;1.20;;
72590;SDS011;60625;51.212;5.952;2023-04-15T16:02:56;5.30;;;1.50;;
72590;SDS011;60625;51.212;5.952;2023-04-15T16:07:57;5.60;;;1.00;;
72590;SDS011;60625;51.212;5.952;2023-04-15T16:12:57;4.80;;;1.00;;
72590;SDS011;60625;51.212;5.952;2023-04-15T16:17:59;4.90;;;0.80;;
72590;SDS011;60625;51.212;5.952;2023-04-15T16:23:01;2.20;;;0.70;;
72590;SDS011;60625;51.212;5.952;2023-04-15T16:28:09;6.80;;;1.20;;
72590;SDS011;60625;51.212;5.952;2023-04-15T16:33:10;2.80;;;1.10;;
72590;SDS011;60625;51.212;5.952;2023-04-15T16:38:11;5.00;;;1.00;;
72590;SDS011;60625;51.212;5.952;2023-04-15T16:43:11;2.70;;;1.10;;
72590;SDS011;60625;51.212;5.952;2023-04-15T16:48:12;5.50;;;1.20;;
72590;SDS011;60625;51.212;5.952;2023-04-15T16:53:14;3.00;;;1.00;;
72590;SDS011;60625;51.212;5.952;2023-04-15T16:58:15;5.70;;;1.40;;
72590;SDS011;60625;51.212;5.952;2023-04-15T17:03:15;6.20;;;1.30;;
72590;SDS011;60625;51.212;5.952;2023-04-15T17:08:16;4.60;;;1.50;;
72590;SDS011;60625;51.212;5.952;2023-04-15T17:13:16;5.40;;;1.20;;
72590;SDS011;60625;51.212;5.952;2023-04-15T17:18:17;3.90;;;1.20;;
72590;SDS011;60625;51.212;5.952;2023-04-15T17:23:17;4.60;;;1.50;;
72590;SDS011;60625;51.212;5.952;2023-04-15T17:28:18;5.70;;;1.50;;
72590;SDS011;60625;51.212;5.952;2023-04-15T17:33:18;7.00;;;1.40;;
72590;SDS011;60625;51.212;5.952;2023-04-15T17:38:19;5.10;;;1.90;;
72590;SDS011;60625;51.212;5.952;2023-04-15T17:43:19;6.10;;;1.70;;
72590;SDS011;60625;51.212;5.952;2023-04-15T17:48:20;5.80;;;1.70;;
72590;SDS011;60625;51.212;5.952;2023-04-15T17:53:20;7.20;;;1.80;;
72590;SDS011;60625;51.212;5.952;2023-04-15T17:58:21;6.40;;;2.50;;
72590;SDS011;60625;51.212;5.952;2023-04-15T18:03:21;7.10;;;1.70;;
72590;SDS011;60625;51.212;5.952;2023-04-15T18:08:22;5.50;;;2.30;;
72590;SDS011;60625;51.212;5.952;2023-04-15T18:13:22;6.80;;;2.10;;
72590;SDS011;60625;51.212;5.952;2023-04-15T18:18:23;7.00;;;1.50;;
72590;SDS011;60625;51.212;5.952;2023-04-15T18:23:24;7.00;;;1.30;;
72590;SDS011;60625;51.212;5.952;2023-04-15T18:28:24;6.70;;;1.60;;
72590;SDS011;60625;51.212;5.952;2023-04-15T18:33:25;4.90;;;1.20;;
72590;SDS011;60625;51.212;5.952;2023-04-15T18:38:26;4.20;;;1.20;;
72590;SDS011;60625;51.212;5.952;2023-04-15T18:43:27;4.20;;;1.30;;
72590;SDS011;60625;51.212;5.952;2023-04-15T18:48:27;7.40;;;1.40;;
72590;SDS011;60625;51.212;5.952;2023-04-15T18:53:28;3.80;;;1.00;;
72590;SDS011;60625;51.212;5.952;2023-04-15T18:58:28;6.80;;;1.40;;
72590;SDS011;60625;51.212;5.952;2023-04-15T19:03:30;6.40;;;1.30;;
72590;SDS011;60625;51.212;5.952;2023-04-15T19:08:30;5.60;;;1.40;;
72590;SDS011;60625;51.212;5.952;2023-04-15T19:13:31;8.10;;;1.10;;
72590;SDS011;60625;51.212;5.952;2023-04-15T19:18:31;7.70;;;1.20;;
72590;SDS011;60625;51.212;5.952;2023-04-15T19:23:32;6.90;;;1.60;;
72590;SDS011;60625;51.212;5.952;2023-04-15T19:28:33;7.30;;;1.50;;
72590;SDS011;60625;51.212;5.952;2023-04-15T19:33:33;6.30;;;1.30;;
72590;SDS011;60625;51.212;5.952;2023-04-15T19:38:34;6.60;;;1.20;;
72590;SDS011;60625;51.212;5.952;2023-04-15T19:43:35;12.90;;;1.10;;
72590;SDS011;60625;51.212;5.952;2023-04-15T19:48:35;8.00;;;1.50;;
72590;SDS011;60625;51.212;5.952;2023-04-15T19:53:36;9.90;;;2.60;;
72590;SDS011;60625;51.212;5.952;2023-04-15T19:58:36;9.50;;;1.70;;
72590;SDS011;60625;51.212;5.952;2023-04-15T20:03:37;6.30;;;1.20;;
72590;SDS011;60625;51.212;5.952;2023-04-15T20:08:40;7.00;;;1.70;;
72590;SDS011;60625;51.212;5.952;2023-04-15T20:13:41;12.50;;;1.60;;
72590;SDS011;60625;51.212;5.952;2023-04-15T20:18:41;8.30;;;1.40;;
72590;SDS011;60625;51.212;5.952;2023-04-15T20:23:42;6.90;;;1.10;;
72590;SDS011;60625;51.212;5.952;2023-04-15T20:28:42;10.90;;;1.40;;
72590;SDS011;60625;51.212;5.952;2023-04-15T20:33:43;7.00;;;1.30;;
72590;SDS011;60625;51.212;5.952;2023-04-15T20:38:43;9.20;;;1.50;;
72590;SDS011;60625;51.212;5.952;2023-04-15T20:43:44;6.50;;;1.30;;
72590;SDS011;60625;51.212;5.952;2023-04-15T20:48:44;9.00;;;1.50;;
72590;SDS011;60625;51.212;5.952;2023-04-15T20:53:45;7.70;;;1.40;;
72590;SDS011;60625;51.212;5.952;2023-04-15T20:58:45;5.20;;;2.10;;
72590;SDS011;60625;51.212;5.952;2023-04-15T21:03:46;7.10;;;1.20;;
72590;SDS011;60625;51.212;5.952;2023-04-15T21:08:46;11.20;;;1.60;;
72590;SDS011;60625;51.212;5.952;2023-04-15T21:13:47;5.90;;;1.70;;
72590;SDS011;60625;51.212;5.952;2023-04-15T21:18:47;8.50;;;1.50;;
72590;SDS011;60625;51.212;5.952;2023-04-15T21:23:48;4.90;;;1.20;;
72590;SDS011;60625;51.212;5.952;2023-04-15T21:28:48;3.70;;;1.00;;
72590;SDS011;60625;51.212;5.952;2023-04-15T21:33:49;6.40;;;1.60;;
72590;SDS011;60625;51.212;5.952;2023-04-15T21:38:49;6.20;;;1.30;;
72590;SDS011;60625;51.212;5.952;2023-04-15T21:43:50;6.20;;;1.30;;
72590;SDS011;60625;51.212;5.952;2023-04-15T21:48:53;8.70;;;1.70;;
72590;SDS011;60625;51.212;5.952;2023-04-15T21:53:54;7.80;;;1.50;;
72590;SDS011;60625;51.212;5.952;2023-04-15T21:58:56;4.30;;;1.50;;
72590;SDS011;60625;51.212;5.952;2023-04-15T22:03:56;7.30;;;1.30;;
72590;SDS011;60625;51.212;5.952;2023-04-15T22:08:57;5.80;;;1.00;;
72590;SDS011;60625;51.212;5.952;2023-04-15T22:13:58;7.20;;;1.40;;
72590;SDS011;60625;51.212;5.952;2023-04-15T22:18:58;6.40;;;1.60;;
72590;SDS011;60625;51.212;5.952;2023-04-15T22:23:59;6.50;;;1.40;;
72590;SDS011;60625;51.212;5.952;2023-04-15T22:28:59;7.20;;;1.50;;
72590;SDS011;60625;51.212;5.952;2023-04-15T22:34:00;6.90;;;1.70;;
72590;SDS011;60625;51.212;5.952;2023-04-15T22:39:01;7.70;;;1.60;;
72590;SDS011;60625;51.212;5.952;2023-04-15T22:44:01;11.00;;;1.80;;
72590;SDS011;60625;51.212;5.952;2023-04-15T22:49:01;8.00;;;2.20;;
72590;SDS011;60625;51.212;5.952;2023-04-15T22:54:02;4.30;;;1.30;;
72590;SDS011;60625;51.212;5.952;2023-04-15T22:59:03;11.50;;;2.10;;
72590;SDS011;60625;51.212;5.952;2023-04-15T23:04:03;5.70;;;1.20;;
72590;SDS011;60625;51.212;5.952;2023-04-15T23:09:04;8.90;;;1.90;;
72590;SDS011;60625;51.212;5.952;2023-04-15T23:14:04;7.70;;;1.50;;
72590;SDS011;60625;51.212;5.952;2023-04-15T23:19:05;7.30;;;1.40;;
72590;SDS011;60625;51.212;5.952;2023-04-15T23:24:05;3.90;;;1.10;;
72590;SDS011;60625;51.212;5.952;2023-04-15T23:29:07;5.90;;;1.60;;
72590;SDS011;60625;51.212;5.952;2023-04-15T23:34:08;9.00;;;1.60;;
72590;SDS011;60625;51.212;5.952;2023-04-15T23:39:08;11.10;;;1.60;;
72590;SDS011;60625;51.212;5.952;2023-04-15T23:44:09;7.50;;;1.60;;
72590;SDS011;60625;51.212;5.952;2023-04-15T23:49:09;6.80;;;1.60;;
72590;SDS011;60625;51.212;5.952;2023-04-15T23:54:09;7.00;;;2.00;;
72590;SDS011;60625;51.212;5.952;2023-04-15T23:59:10;11.20;;;1.70;;
